Time;durP1;ratioP1;P1;durP2;ratioP2;P2;SDS_P1;SDS_P2;PMS_P1;PMS_P2;Temp;Humidity;BMP_temperature;BMP_pressure;BME280_temperature;BME280_humidity;BME280_pressure;Samples;Min_cycle;Max_cycle;Signal;HPM_P1;HPM_P2
2023/09/06 00:08:06;;;;;;;2.13;1.60;;;;;;;21.00;96.79;101701.41;21122075;28;20441;-70
2023/09/06 00:18:08;;;;;;;2.10;1.73;;;;;;;20.98;96.72;101700.69;21093568;28;20634;-70
2023/09/06 00:28:10;;;;;;;1.90;1.70;;;;;;;20.95;96.60;101689.25;21112504;28;20515;-70
2023/09/06 00:38:12;;;;;;;1.70;1.60;;;;;;;20.94;96.20;101699.25;21119362;28;20046;-70
2023/09/06 00:48:19;;;;;;;1.77;1.67;;;;;;;20.93;95.95;101702.94;21114043;28;20067;-70
2023/09/06 00:58:21;;;;;;;1.95;1.67;;;;;;;20.92;95.73;101692.25;21099659;28;20430;-70
2023/09/06 01:08:28;;;;;;;1.73;1.48;;;;;;;20.91;95.36;101691.41;21100305;28;20226;-70
2023/09/06 01:18:30;;;;;;;1.63;1.52;;;;;;;20.88;95.21;101683.56;21079558;28;20071;-70
2023/09/06 01:28:33;;;;;;;1.90;1.75;;;;;;;20.88;94.89;101691.66;21078984;28;20065;-70
2023/09/06 01:38:34;;;;;;;1.70;1.45;;;;;;;20.86;94.93;101696.38;21109323;28;20056;-70
2023/09/06 01:48:38;;;;;;;1.17;1.08;;;;;;;20.87;95.35;101708.91;21104549;28;20453;-69
2023/09/06 01:58:40;;;;;;;1.40;1.27;;;;;;;20.87;95.00;101708.91;21086873;28;20048;-70
2023/09/06 02:08:42;;;;;;;1.35;1.15;;;;;;;20.86;94.37;101708.03;21097054;28;20074;-70
2023/09/06 02:18:44;;;;;;;1.60;1.20;;;;;;;20.87;94.15;101708.91;21118431;28;20050;-69
2023/09/06 02:28:45;;;;;;;1.77;1.10;;;;;;;20.84;93.78;101701.91;21108705;28;20050;-70
2023/09/06 02:38:48;;;;;;;1.40;1.27;;;;;;;20.84;93.43;101709.19;21097272;28;20047;-70
2023/09/06 02:48:50;;;;;;;1.33;1.23;;;;;;;20.79;93.32;101706.88;21092414;28;20105;-70
2023/09/06 02:58:51;;;;;;;1.30;1.20;;;;;;;20.81;93.20;101720.28;21096808;28;20068;-70
2023/09/06 03:08:53;;;;;;;1.25;1.15;;;;;;;20.80;92.76;101726.69;21108564;28;20054;-70
2023/09/06 03:18:56;;;;;;;0.93;0.88;;;;;;;20.77;92.47;101727.75;21101753;28;20131;-70
2023/09/06 03:28:57;;;;;;;0.88;0.88;;;;;;;20.77;92.04;101724.19;21121892;28;20475;-70
2023/09/06 03:39:00;;;;;;;1.10;1.00;;;;;;;20.76;91.75;101725.19;21117533;28;20051;-70
2023/09/06 03:49:06;;;;;;;1.67;0.80;;;;;;;20.67;91.53;101718.75;21111098;28;20048;-70
2023/09/06 03:59:09;;;;;;;0.75;0.75;;;;;;;20.71;91.08;101731.84;21099903;28;20055;-70
2023/09/06 04:09:13;;;;;;;1.45;0.70;;;;;;;20.70;90.92;101735.56;21110066;28;20088;-70
2023/09/06 04:19:15;;;;;;;0.73;0.73;;;;;;;20.68;89.87;101734.00;21081926;28;20048;-69
2023/09/06 04:29:17;;;;;;;3.75;1.00;;;;;;;20.65;89.73;101734.25;21104621;28;20297;-70
2023/09/06 04:39:20;;;;;;;1.23;0.90;;;;;;;20.61;89.92;101730.97;21104674;28;20052;-69
2023/09/06 04:49:22;;;;;;;0.95;0.80;;;;;;;20.58;89.95;101718.56;21099681;28;20044;-70
2023/09/06 04:59:24;;;;;;;0.70;0.70;;;;;;;20.49;89.86;101711.25;21083150;28;20143;-69
2023/09/06 05:09:26;;;;;;;1.02;0.82;;;;;;;20.54;89.89;101721.66;21077098;28;20044;-69
2023/09/06 05:19:28;;;;;;;1.15;0.90;;;;;;;20.54;89.54;101740.59;21073513;28;20056;-70
2023/09/06 05:29:32;;;;;;;1.30;1.20;;;;;;;20.52;89.46;101748.00;21073188;28;20058;-69
2023/09/06 05:39:34;;;;;;;1.08;0.90;;;;;;;20.51;89.31;101751.69;21074500;28;20055;-70
2023/09/06 05:49:37;;;;;;;1.58;1.13;;;;;;;20.49;89.36;101765.34;21071331;28;20050;-70
2023/09/06 05:59:39;;;;;;;1.10;1.00;;;;;;;20.49;89.34;101776.16;21071540;28;20062;-70
2023/09/06 06:09:42;;;;;;;1.15;0.98;;;;;;;20.48;89.50;101790.66;21071229;28;20535;-69
2023/09/06 06:19:45;;;;;;;1.17;1.08;;;;;;;20.48;89.59;101789.84;21071864;28;20055;-69
2023/09/06 06:29:46;;;;;;;1.75;1.13;;;;;;;20.51;90.05;101800.38;21071735;28;20052;-69
2023/09/06 06:39:49;;;;;;;2.22;1.20;;;;;;;20.52;90.72;101802.94;21077586;28;20064;-69
2023/09/06 06:49:51;;;;;;;1.60;1.10;;;;;;;20.50;91.28;101793.25;21084197;28;20546;-69
2023/09/06 06:59:53;;;;;;;3.05;1.40;;;;;;;20.65;91.77;101808.16;21087268;28;20052;-69
2023/09/06 07:09:55;;;;;;;1.58;1.33;;;;;;;20.72;91.58;101814.75;21085755;28;20070;-69
2023/09/06 07:19:56;;;;;;;1.20;1.05;;;;;;;20.90;92.04;101818.72;21086168;28;20135;-69
2023/09/06 07:29:58;;;;;;;1.77;1.35;;;;;;;21.03;91.94;101821.22;21084040;28;20052;-69
2023/09/06 07:40:00;;;;;;;1.92;1.40;;;;;;;21.17;91.71;101820.84;21082946;28;20054;-68
2023/09/06 07:50:05;;;;;;;1.42;1.25;;;;;;;21.29;91.14;101827.91;21082776;28;20058;-69
2023/09/06 08:00:07;;;;;;;;;;;;;;;21.42;90.55;101832.22;21082196;28;20055;-69
2023/09/06 08:10:13;;;;;;;1.52;1.20;;;;;;;21.50;90.30;101845.09;21080849;28;19947;-69
2023/09/06 08:20:16;;;;;;;1.95;1.40;;;;;;;21.57;90.07;101835.41;21081006;28;20118;-69
2023/09/06 08:30:19;;;;;;;3.20;1.30;;;;;;;21.61;89.72;101842.28;21079704;28;20048;-69
2023/09/06 08:40:21;;;;;;;1.60;1.30;;;;;;;21.68;89.43;101853.47;21078734;28;20052;-69
2023/09/06 08:50:23;;;;;;;1.70;1.33;;;;;;;21.70;89.55;101863.16;21076934;28;20135;-69
2023/09/06 09:00:25;;;;;;;1.63;1.20;;;;;;;21.73;89.18;101853.91;21076171;28;20411;-69
2023/09/06 09:10:31;;;;;;;2.63;1.88;;;;;;;21.73;88.87;101868.28;21072854;28;20048;-68
2023/09/06 09:20:40;;;;;;;2.85;1.30;;;;;;;21.72;88.46;101854.88;21070988;28;20101;-67
2023/09/06 09:30:42;;;;;;;2.63;1.27;;;;;;;21.70;88.02;101846.88;21089561;28;20047;-68
2023/09/06 09:40:45;;;;;;;1.35;1.23;;;;;;;21.70;88.05;101846.03;21082577;28;20059;-67
2023/09/06 09:50:55;;;;;;;3.38;1.40;;;;;;;21.69;88.27;101839.75;21104473;28;20526;-67
2023/09/06 10:00:57;;;;;;;1.38;1.23;;;;;;;21.71;88.09;101842.34;21093660;28;20052;-67
2023/09/06 10:11:06;;;;;;;1.73;1.33;;;;;;;21.71;88.10;101842.34;21096400;28;20071;-67
2023/09/06 10:21:08;;;;;;;1.80;1.30;;;;;;;21.75;88.66;101827.50;21074172;28;20130;-67
2023/09/06 10:31:12;;;;;;;1.67;1.42;;;;;;;21.76;88.97;101812.97;21073825;28;20489;-67
2023/09/06 10:41:15;;;;;;;1.27;0.97;;;;;;;21.85;88.96;101817.53;21089369;28;20411;-67
2023/09/06 10:51:18;;;;;;;2.47;1.30;;;;;;;21.90;88.78;101819.84;21084470;28;20048;-67
2023/09/06 11:01:20;;;;;;;1.63;1.20;;;;;;;21.93;89.16;101808.72;21040201;28;20443;-68
2023/09/06 11:11:22;;;;;;;2.35;1.42;;;;;;;21.98;89.00;101808.25;21079227;28;20059;-68
2023/09/06 11:21:23;;;;;;;1.83;1.20;;;;;;;22.03;88.92;101803.28;21134008;28;20051;-68
2023/09/06 11:31:29;;;;;;;2.85;1.35;;;;;;;22.08;88.83;101800.16;21096238;28;20055;-68
2023/09/06 11:41:31;;;;;;;2.65;1.35;;;;;;;22.12;88.72;101799.72;21112778;28;20056;-67
2023/09/06 11:51:33;;;;;;;2.05;1.48;;;;;;;22.16;88.84;101798.44;21124892;27;20051;-67
2023/09/06 12:01:43;;;;;;;2.00;1.10;;;;;;;22.15;88.91;101796.72;21119801;28;20044;-67
2023/09/06 12:11:46;;;;;;;1.40;1.30;;;;;;;22.15;88.79;101774.16;21081387;28;20044;-67
2023/09/06 12:21:48;;;;;;;1.48;1.38;;;;;;;22.22;88.79;101779.88;21084610;28;20063;-70
2023/09/06 12:31:52;;;;;;;2.10;1.40;;;;;;;22.24;88.86;101777.88;21102710;28;20130;-68
2023/09/06 12:41:55;;;;;;;2.10;1.50;;;;;;;22.25;88.65;101780.44;21135705;28;20396;-68
2023/09/06 12:51:57;;;;;;;2.70;1.55;;;;;;;22.26;88.40;101759.59;21091694;28;20105;-68
2023/09/06 13:01:58;;;;;;;1.70;1.30;;;;;;;22.27;88.91;101758.59;21092031;28;20590;-70
2023/09/06 13:12:00;;;;;;;3.90;1.48;;;;;;;22.29;89.71;101756.59;21076056;28;20048;-67
2023/09/06 13:22:03;;;;;;;1.90;1.30;;;;;;;22.30;90.26;101758.31;21082466;28;20127;-68
2023/09/06 13:32:06;;;;;;;1.55;1.30;;;;;;;22.29;90.65;101748.47;21073773;28;20071;-67
2023/09/06 13:42:09;;;;;;;2.07;1.30;;;;;;;22.28;91.10;101744.03;21078518;28;20125;-67
2023/09/06 13:52:11;;;;;;;3.13;1.48;;;;;;;22.26;90.87;101737.91;21072251;28;20055;-66
2023/09/06 14:02:16;;;;;;;2.75;1.50;;;;;;;22.25;90.89;101722.63;21051421;28;20393;-67
2023/09/06 14:12:18;;;;;;;1.63;1.30;;;;;;;22.24;90.96;101716.34;21080426;28;20052;-69
2023/09/06 14:22:20;;;;;;;2.22;1.30;;;;;;;22.25;90.68;101722.63;21081483;28;20129;-68
2023/09/06 14:32:22;;;;;;;1.75;1.20;;;;;;;22.26;90.82;101721.63;21072998;28;20117;-70
2023/09/06 14:42:24;;;;;;;2.20;1.13;;;;;;;22.27;90.21;101724.19;21065669;28;20072;-67
2023/09/06 14:52:26;;;;;;;2.33;1.30;;;;;;;22.27;90.87;101715.19;21106716;28;20046;-67
2023/09/06 15:02:28;;;;;;;1.30;1.20;;;;;;;22.28;90.80;101708.78;21128689;28;20507;-68
2023/09/06 15:12:30;;;;;;;2.38;1.20;;;;;;;22.26;90.46;101708.91;21112914;28;20059;-66
2023/09/06 15:22:32;;;;;;;2.72;1.73;;;;;;;22.28;91.84;101714.19;21082566;28;20063;-66
2023/09/06 15:32:42;;;;;;;2.13;1.60;;;;;;;22.31;92.14;101703.06;21083604;28;20059;-65
2023/09/06 15:42:44;;;;;;;2.10;1.50;;;;;;;22.34;92.02;101710.06;21088893;28;20830;-66
2023/09/06 15:52:47;;;;;;;2.25;1.25;;;;;;;22.31;91.94;101694.91;21096579;28;20055;-67
2023/09/06 16:02:49;;;;;;;1.42;0.90;;;;;;;22.31;91.79;101713.91;21098535;28;20056;-67
2023/09/06 16:12:51;;;;;;;1.60;1.40;;;;;;;22.20;90.89;101708.66;21081757;28;20060;-67
2023/09/06 16:22:53;;;;;;;2.28;1.52;;;;;;;22.13;91.11;101716.50;21099910;28;20062;-68
2023/09/06 16:32:54;;;;;;;2.75;1.60;;;;;;;22.07;91.37;101711.66;21090381;28;20568;-69
2023/09/06 16:42:56;;;;;;;1.80;1.50;;;;;;;22.02;91.29;101701.25;21088506;28;20091;-67
2023/09/06 16:52:58;;;;;;;2.63;1.50;;;;;;;21.99;91.72;101715.09;21087975;28;20119;-67
2023/09/06 17:03:00;;;;;;;2.40;1.50;;;;;;;21.95;91.55;101721.78;21092560;28;20051;-68
2023/09/06 17:13:02;;;;;;;3.63;1.50;;;;;;;21.91;91.91;101713.13;21100549;28;20118;-68
2023/09/06 17:23:06;;;;;;;2.47;1.70;;;;;;;21.85;93.69;101703.69;21086575;28;20054;-69
2023/09/06 17:33:14;;;;;;;4.10;1.52;;;;;;;21.94;94.53;101703.81;21074489;28;20055;-69
2023/09/06 17:43:16;;;;;;;2.53;1.70;;;;;;;21.87;94.53;101700.81;21089844;28;20131;-69
2023/09/06 17:53:20;;;;;;;2.53;1.58;;;;;;;21.91;95.43;101723.09;21073072;28;20048;-69
2023/09/06 18:03:22;;;;;;;2.10;1.70;;;;;;;21.88;95.72;101735.09;21073501;28;20044;-69
2023/09/06 18:13:24;;;;;;;2.40;1.45;;;;;;;21.85;96.01;101738.94;21072372;28;20529;-69
2023/09/06 18:23:26;;;;;;;1.80;1.45;;;;;;;21.81;96.36;101742.91;21068803;28;20051;-69
2023/09/06 18:33:28;;;;;;;2.92;1.55;;;;;;;21.79;96.54;101741.34;21104985;28;20047;-69
2023/09/06 18:43:30;;;;;;;1.80;1.20;;;;;;;21.76;96.90;101750.63;21142661;28;20140;-69
2023/09/06 18:53:32;;;;;;;2.17;1.40;;;;;;;21.73;96.68;101759.03;21088515;28;20036;-69
2023/09/06 19:03:34;;;;;;;2.65;1.42;;;;;;;21.70;96.78;101771.00;21114336;28;20055;-69
2023/09/06 19:13:36;;;;;;;1.80;1.50;;;;;;;21.67;96.74;101768.56;21123470;28;20483;-69
2023/09/06 19:23:38;;;;;;;1.67;1.42;;;;;;;21.64;97.10;101782.41;21104375;28;20064;-69
2023/09/06 19:33:40;;;;;;;1.40;1.30;;;;;;;21.63;97.10;101791.50;21084775;28;20083;-69
2023/09/06 19:43:41;;;;;;;1.35;1.23;;;;;;;21.59;96.93;101790.06;21083791;28;20083;-69
2023/09/06 19:53:44;;;;;;;1.92;1.20;;;;;;;21.56;96.89;101785.78;21073258;28;20484;-69
2023/09/06 20:03:46;;;;;;;1.42;1.30;;;;;;;21.54;97.00;101792.34;21082639;28;20100;-69
2023/09/06 20:13:49;;;;;;;1.50;1.40;;;;;;;21.53;96.96;101783.34;21079315;28;20040;-69
2023/09/06 20:23:51;;;;;;;2.15;1.27;;;;;;;21.50;96.85;101786.34;21081585;28;20451;-69
2023/09/06 20:33:53;;;;;;;1.50;1.40;;;;;;;21.49;96.60;101790.03;21079602;28;20044;-69
2023/09/06 20:43:55;;;;;;;2.00;1.40;;;;;;;21.44;96.38;101784.19;21078422;28;20095;-69
2023/09/06 20:53:56;;;;;;;1.23;1.02;;;;;;;21.44;96.80;101787.75;21077975;28;20044;-69
2023/09/06 21:03:58;;;;;;;4.28;1.27;;;;;;;21.41;96.71;101798.00;21077434;28;20059;-69
2023/09/06 21:14:00;;;;;;;1.40;1.30;;;;;;;21.41;96.51;101809.69;21076293;28;20117;-69
2023/09/06 21:24:02;;;;;;;1.30;1.20;;;;;;;21.36;96.38;101802.97;21076416;28;20393;-69
2023/09/06 21:34:04;;;;;;;1.95;1.52;;;;;;;21.37;95.97;101812.81;21075319;28;20086;-69
2023/09/06 21:44:06;;;;;;;1.33;1.23;;;;;;;21.35;95.95;101806.69;21074344;28;20043;-69
2023/09/06 21:54:08;;;;;;;1.50;1.40;;;;;;;21.34;95.93;101818.50;21073038;28;20059;-69
2023/09/06 22:04:09;;;;;;;1.27;1.17;;;;;;;21.33;95.83;101825.78;21072655;28;20067;-69
2023/09/06 22:14:30;;;;;;;1.58;1.13;;;;;;;21.31;95.78;101830.47;21071260;28;20486;-69
2023/09/06 22:24:33;;;;;;;1.35;1.25;;;;;;;21.29;95.79;101844.16;21071602;28;20117;-69
2023/09/06 22:34:36;;;;;;;1.35;1.25;;;;;;;21.26;95.83;101841.72;21070923;28;20066;-69
2023/09/06 22:44:38;;;;;;;1.92;1.50;;;;;;;21.23;95.68;101839.28;21069785;28;20052;-69
2023/09/06 22:54:39;;;;;;;1.73;1.63;;;;;;;21.22;95.41;101839.41;21070636;28;20079;-69
2023/09/06 23:04:41;;;;;;;2.25;1.90;;;;;;;21.20;95.16;101836.81;21069628;28;20507;-69
2023/09/06 23:14:45;;;;;;;1.75;1.65;;;;;;;21.18;94.90;101838.81;21071089;28;20115;-69
2023/09/06 23:24:49;;;;;;;1.83;1.30;;;;;;;21.17;94.69;101845.22;21079412;28;20056;-69
2023/09/06 23:34:53;;;;;;;1.88;1.60;;;;;;;21.14;94.46;101832.84;21084597;28;20101;-69
2023/09/06 23:44:55;;;;;;;1.90;1.60;;;;;;;21.12;94.16;101826.69;21085352;28;20508;-69
2023/09/06 23:54:57;;;;;;;1.90;1.52;;;;;;;21.10;93.98;101822.41;21082905;28;20075;-68
